sensor_id;sensor_type;location;lat;lon;timestamp;P1;durP1;ratioP1;P2;durP2;ratioP2
11418;SDS011;32800;44.876;13.880;2023-03-14T00:02:15;1.67;;;1.10;;
11418;SDS011;32800;44.876;13.880;2023-03-14T00:04:41;1.50;;;1.30;;
11418;SDS011;32800;44.876;13.880;2023-03-14T00:07:07;2.00;;;1.20;;
11418;SDS011;32800;44.876;13.880;2023-03-14T00:09:33;1.63;;;1.27;;
11418;SDS011;32800;44.876;13.880;2023-03-14T00:11:58;2.00;;;1.33;;
11418;SDS011;32800;44.876;13.880;2023-03-14T00:14:24;1.60;;;1.37;;
11418;SDS011;32800;44.876;13.880;2023-03-14T00:16:50;2.57;;;1.50;;
11418;SDS011;32800;44.876;13.880;2023-03-14T00:19:15;2.10;;;1.17;;
11418;SDS011;32800;44.876;13.880;2023-03-14T00:21:41;1.60;;;1.20;;
11418;SDS011;32800;44.876;13.880;2023-03-14T00:24:07;1.47;;;1.20;;
11418;SDS011;32800;44.876;13.880;2023-03-14T00:26:33;1.53;;;1.43;;
11418;SDS011;32800;44.876;13.880;2023-03-14T00:28:58;1.07;;;1.03;;
11418;SDS011;32800;44.876;13.880;2023-03-14T00:31:24;1.77;;;1.30;;
11418;SDS011;32800;44.876;13.880;2023-03-14T00:33:51;1.20;;;1.10;;
11418;SDS011;32800;44.876;13.880;2023-03-14T00:36:17;1.27;;;1.13;;
11418;SDS011;32800;44.876;13.880;2023-03-14T00:38:43;1.63;;;1.47;;
11418;SDS011;32800;44.876;13.880;2023-03-14T00:41:14;1.90;;;1.30;;
11418;SDS011;32800;44.876;13.880;2023-03-14T00:43:41;1.50;;;1.37;;
11418;SDS011;32800;44.876;13.880;2023-03-14T00:46:06;1.60;;;1.30;;
11418;SDS011;32800;44.876;13.880;2023-03-14T00:48:32;1.77;;;1.20;;
11418;SDS011;32800;44.876;13.880;2023-03-14T00:50:58;1.43;;;1.10;;
11418;SDS011;32800;44.876;13.880;2023-03-14T00:53:23;1.83;;;1.20;;
11418;SDS011;32800;44.876;13.880;2023-03-14T00:55:49;1.50;;;1.17;;
11418;SDS011;32800;44.876;13.880;2023-03-14T00:58:15;1.33;;;1.00;;
11418;SDS011;32800;44.876;13.880;2023-03-14T01:00:42;1.10;;;1.00;;
11418;SDS011;32800;44.876;13.880;2023-03-14T01:03:08;3.27;;;1.40;;
11418;SDS011;32800;44.876;13.880;2023-03-14T01:05:34;2.13;;;1.30;;
11418;SDS011;32800;44.876;13.880;2023-03-14T01:08:00;1.50;;;0.97;;
11418;SDS011;32800;44.876;13.880;2023-03-14T01:10:26;1.80;;;1.40;;
11418;SDS011;32800;44.876;13.880;2023-03-14T01:12:52;1.53;;;1.40;;
11418;SDS011;32800;44.876;13.880;2023-03-14T01:15:18;1.20;;;1.10;;
11418;SDS011;32800;44.876;13.880;2023-03-14T01:17:44;1.27;;;1.00;;
11418;SDS011;32800;44.876;13.880;2023-03-14T01:20:10;1.57;;;1.30;;
11418;SDS011;32800;44.876;13.880;2023-03-14T01:22:38;1.20;;;1.10;;
11418;SDS011;32800;44.876;13.880;2023-03-14T01:25:09;2.47;;;1.27;;
11418;SDS011;32800;44.876;13.880;2023-03-14T01:27:37;1.57;;;1.10;;
11418;SDS011;32800;44.876;13.880;2023-03-14T01:30:03;1.40;;;1.20;;
11418;SDS011;32800;44.876;13.880;2023-03-14T01:32:29;1.20;;;1.10;;
11418;SDS011;32800;44.876;13.880;2023-03-14T01:34:56;1.77;;;1.00;;
11418;SDS011;32800;44.876;13.880;2023-03-14T01:37:21;2.17;;;1.10;;
11418;SDS011;32800;44.876;13.880;2023-03-14T01:39:47;1.57;;;1.07;;
11418;SDS011;32800;44.876;13.880;2023-03-14T01:42:13;1.57;;;1.17;;
11418;SDS011;32800;44.876;13.880;2023-03-14T01:47:25;1.40;;;1.10;;
11418;SDS011;32800;44.876;13.880;2023-03-14T01:49:56;1.40;;;1.20;;
11418;SDS011;32800;44.876;13.880;2023-03-14T01:52:27;2.60;;;1.20;;
11418;SDS011;32800;44.876;13.880;2023-03-14T01:55:02;1.30;;;1.20;;
11418;SDS011;32800;44.876;13.880;2023-03-14T01:57:32;1.63;;;1.00;;
11418;SDS011;32800;44.876;13.880;2023-03-14T02:00:06;1.77;;;1.00;;
11418;SDS011;32800;44.876;13.880;2023-03-14T02:02:40;1.73;;;1.20;;
11418;SDS011;32800;44.876;13.880;2023-03-14T02:05:07;1.20;;;1.00;;
11418;SDS011;32800;44.876;13.880;2023-03-14T02:07:38;2.63;;;1.27;;
11418;SDS011;32800;44.876;13.880;2023-03-14T02:10:09;1.10;;;1.00;;
11418;SDS011;32800;44.876;13.880;2023-03-14T02:12:34;1.17;;;1.07;;
11418;SDS011;32800;44.876;13.880;2023-03-14T02:15:00;1.10;;;1.00;;
11418;SDS011;32800;44.876;13.880;2023-03-14T02:17:26;1.57;;;1.13;;
11418;SDS011;32800;44.876;13.880;2023-03-14T02:22:30;1.13;;;1.00;;
11418;SDS011;32800;44.876;13.880;2023-03-14T02:27:47;1.20;;;1.10;;
11418;SDS011;32800;44.876;13.880;2023-03-14T02:30:14;1.13;;;1.00;;
11418;SDS011;32800;44.876;13.880;2023-03-14T02:32:43;1.53;;;1.10;;
11418;SDS011;32800;44.876;13.880;2023-03-14T02:35:12;0.97;;;0.97;;
11418;SDS011;32800;44.876;13.880;2023-03-14T02:37:42;1.23;;;1.00;;
11418;SDS011;32800;44.876;13.880;2023-03-14T02:40:11;1.60;;;1.17;;
11418;SDS011;32800;44.876;13.880;2023-03-14T02:42:37;2.53;;;1.10;;
11418;SDS011;32800;44.876;13.880;2023-03-14T02:47:34;1.10;;;1.00;;
11418;SDS011;32800;44.876;13.880;2023-03-14T02:52:47;1.40;;;1.20;;
11418;SDS011;32800;44.876;13.880;2023-03-14T02:55:13;1.43;;;1.07;;
11418;SDS011;32800;44.876;13.880;2023-03-14T02:57:39;1.93;;;1.10;;
11418;SDS011;32800;44.876;13.880;2023-03-14T03:00:05;1.10;;;1.00;;
11418;SDS011;32800;44.876;13.880;2023-03-14T03:02:31;2.40;;;1.10;;
11418;SDS011;32800;44.876;13.880;2023-03-14T03:04:57;1.10;;;1.00;;
11418;SDS011;32800;44.876;13.880;2023-03-14T03:07:23;1.27;;;1.10;;
11418;SDS011;32800;44.876;13.880;2023-03-14T03:09:49;1.33;;;1.10;;
11418;SDS011;32800;44.876;13.880;2023-03-14T03:12:14;2.17;;;1.00;;
11418;SDS011;32800;44.876;13.880;2023-03-14T03:14:40;1.03;;;0.90;;
11418;SDS011;32800;44.876;13.880;2023-03-14T03:17:05;1.20;;;1.00;;
11418;SDS011;32800;44.876;13.880;2023-03-14T03:19:32;1.43;;;1.13;;
11418;SDS011;32800;44.876;13.880;2023-03-14T03:21:58;1.43;;;1.17;;
11418;SDS011;32800;44.876;13.880;2023-03-14T03:24:24;1.50;;;0.90;;
11418;SDS011;32800;44.876;13.880;2023-03-14T03:26:50;1.40;;;1.20;;
11418;SDS011;32800;44.876;13.880;2023-03-14T03:29:15;1.90;;;0.90;;
11418;SDS011;32800;44.876;13.880;2023-03-14T03:31:41;1.97;;;1.00;;
11418;SDS011;32800;44.876;13.880;2023-03-14T03:34:07;1.10;;;0.83;;
11418;SDS011;32800;44.876;13.880;2023-03-14T03:36:33;1.10;;;1.00;;
11418;SDS011;32800;44.876;13.880;2023-03-14T03:38:58;1.20;;;1.10;;
11418;SDS011;32800;44.876;13.880;2023-03-14T03:41:24;1.67;;;1.20;;
11418;SDS011;32800;44.876;13.880;2023-03-14T03:43:49;1.23;;;0.90;;
11418;SDS011;32800;44.876;13.880;2023-03-14T03:46:15;2.27;;;0.97;;
11418;SDS011;32800;44.876;13.880;2023-03-14T03:48:40;1.20;;;1.10;;
11418;SDS011;32800;44.876;13.880;2023-03-14T03:51:06;1.33;;;1.03;;
11418;SDS011;32800;44.876;13.880;2023-03-14T03:53:32;1.60;;;0.90;;
11418;SDS011;32800;44.876;13.880;2023-03-14T03:55:57;1.00;;;0.80;;
11418;SDS011;32800;44.876;13.880;2023-03-14T03:58:23;1.90;;;1.13;;
11418;SDS011;32800;44.876;13.880;2023-03-14T04:00:48;1.37;;;1.00;;
11418;SDS011;32800;44.876;13.880;2023-03-14T04:03:14;0.97;;;0.90;;
11418;SDS011;32800;44.876;13.880;2023-03-14T04:05:39;1.47;;;1.10;;
11418;SDS011;32800;44.876;13.880;2023-03-14T04:08:05;1.40;;;0.90;;
11418;SDS011;32800;44.876;13.880;2023-03-14T04:10:33;2.20;;;0.80;;
11418;SDS011;32800;44.876;13.880;2023-03-14T04:13:00;1.80;;;0.90;;
11418;SDS011;32800;44.876;13.880;2023-03-14T04:15:25;1.10;;;1.00;;
11418;SDS011;32800;44.876;13.880;2023-03-14T04:17:51;1.03;;;0.90;;
11418;SDS011;32800;44.876;13.880;2023-03-14T04:20:16;0.93;;;0.90;;
11418;SDS011;32800;44.876;13.880;2023-03-14T04:22:42;1.10;;;1.00;;
11418;SDS011;32800;44.876;13.880;2023-03-14T04:25:07;1.47;;;1.00;;
11418;SDS011;32800;44.876;13.880;2023-03-14T04:27:33;1.37;;;1.00;;
11418;SDS011;32800;44.876;13.880;2023-03-14T04:29:58;1.87;;;1.07;;
11418;SDS011;32800;44.876;13.880;2023-03-14T04:32:24;1.63;;;1.10;;
11418;SDS011;32800;44.876;13.880;2023-03-14T04:34:49;2.13;;;0.90;;
11418;SDS011;32800;44.876;13.880;2023-03-14T04:37:15;1.10;;;1.00;;
11418;SDS011;32800;44.876;13.880;2023-03-14T04:39:41;1.87;;;1.00;;
11418;SDS011;32800;44.876;13.880;2023-03-14T04:42:06;1.10;;;0.97;;
11418;SDS011;32800;44.876;13.880;2023-03-14T04:44:32;1.53;;;0.93;;
11418;SDS011;32800;44.876;13.880;2023-03-14T04:46:58;1.23;;;0.90;;
11418;SDS011;32800;44.876;13.880;2023-03-14T04:49:23;1.23;;;0.90;;
11418;SDS011;32800;44.876;13.880;2023-03-14T04:51:49;1.40;;;1.07;;
11418;SDS011;32800;44.876;13.880;2023-03-14T04:54:18;1.10;;;0.90;;
11418;SDS011;32800;44.876;13.880;2023-03-14T04:56:43;1.13;;;0.93;;
11418;SDS011;32800;44.876;13.880;2023-03-14T04:59:09;1.10;;;1.00;;
11418;SDS011;32800;44.876;13.880;2023-03-14T05:01:35;1.53;;;1.00;;
11418;SDS011;32800;44.876;13.880;2023-03-14T05:04:00;1.20;;;1.00;;
11418;SDS011;32800;44.876;13.880;2023-03-14T05:06:26;0.97;;;0.90;;
11418;SDS011;32800;44.876;13.880;2023-03-14T05:08:51;2.20;;;0.87;;
11418;SDS011;32800;44.876;13.880;2023-03-14T05:11:17;1.00;;;0.90;;
11418;SDS011;32800;44.876;13.880;2023-03-14T05:13:43;2.27;;;1.17;;
11418;SDS011;32800;44.876;13.880;2023-03-14T05:16:09;1.00;;;0.90;;
11418;SDS011;32800;44.876;13.880;2023-03-14T05:18:35;1.23;;;1.07;;
11418;SDS011;32800;44.876;13.880;2023-03-14T05:21:01;0.90;;;0.80;;
11418;SDS011;32800;44.876;13.880;2023-03-14T05:23:27;1.00;;;0.90;;
11418;SDS011;32800;44.876;13.880;2023-03-14T05:25:53;0.90;;;0.77;;
11418;SDS011;32800;44.876;13.880;2023-03-14T05:28:18;1.33;;;0.80;;
11418;SDS011;32800;44.876;13.880;2023-03-14T05:30:44;1.87;;;1.00;;
11418;SDS011;32800;44.876;13.880;2023-03-14T05:33:09;1.07;;;1.00;;
11418;SDS011;32800;44.876;13.880;2023-03-14T05:35:35;2.03;;;0.90;;
11418;SDS011;32800;44.876;13.880;2023-03-14T05:38:00;1.17;;;0.90;;
11418;SDS011;32800;44.876;13.880;2023-03-14T05:40:26;0.83;;;0.83;;
11418;SDS011;32800;44.876;13.880;2023-03-14T05:42:52;1.43;;;0.83;;
11418;SDS011;32800;44.876;13.880;2023-03-14T05:45:17;1.17;;;1.00;;
11418;SDS011;32800;44.876;13.880;2023-03-14T05:47:43;1.80;;;1.00;;
11418;SDS011;32800;44.876;13.880;2023-03-14T05:50:09;1.97;;;1.00;;
11418;SDS011;32800;44.876;13.880;2023-03-14T05:52:35;1.97;;;0.90;;
11418;SDS011;32800;44.876;13.880;2023-03-14T05:55:01;1.87;;;1.00;;
11418;SDS011;32800;44.876;13.880;2023-03-14T05:57:28;1.00;;;0.77;;
11418;SDS011;32800;44.876;13.880;2023-03-14T05:59:53;1.57;;;0.90;;
11418;SDS011;32800;44.876;13.880;2023-03-14T06:02:19;0.83;;;0.80;;
11418;SDS011;32800;44.876;13.880;2023-03-14T06:04:45;1.00;;;0.80;;
11418;SDS011;32800;44.876;13.880;2023-03-14T06:07:10;4.13;;;0.90;;
11418;SDS011;32800;44.876;13.880;2023-03-14T06:09:36;0.97;;;0.80;;
11418;SDS011;32800;44.876;13.880;2023-03-14T06:12:01;1.83;;;0.93;;
11418;SDS011;32800;44.876;13.880;2023-03-14T06:14:27;1.33;;;0.90;;
11418;SDS011;32800;44.876;13.880;2023-03-14T06:16:52;3.17;;;1.00;;
11418;SDS011;32800;44.876;13.880;2023-03-14T06:19:18;3.67;;;1.00;;
11418;SDS011;32800;44.876;13.880;2023-03-14T06:21:44;3.30;;;1.10;;
11418;SDS011;32800;44.876;13.880;2023-03-14T06:24:09;6.10;;;1.80;;
11418;SDS011;32800;44.876;13.880;2023-03-14T06:26:35;4.10;;;1.33;;
11418;SDS011;32800;44.876;13.880;2023-03-14T06:29:01;4.30;;;1.40;;
11418;SDS011;32800;44.876;13.880;2023-03-14T06:31:31;5.43;;;1.70;;
11418;SDS011;32800;44.876;13.880;2023-03-14T06:33:57;4.07;;;1.73;;
11418;SDS011;32800;44.876;13.880;2023-03-14T06:36:23;3.33;;;1.60;;
11418;SDS011;32800;44.876;13.880;2023-03-14T06:38:48;6.70;;;1.33;;
11418;SDS011;32800;44.876;13.880;2023-03-14T06:41:14;4.13;;;1.50;;
11418;SDS011;32800;44.876;13.880;2023-03-14T06:43:39;4.43;;;1.60;;
11418;SDS011;32800;44.876;13.880;2023-03-14T06:46:05;4.17;;;1.63;;
11418;SDS011;32800;44.876;13.880;2023-03-14T06:48:31;9.10;;;1.90;;
11418;SDS011;32800;44.876;13.880;2023-03-14T06:50:56;3.50;;;1.63;;
11418;SDS011;32800;44.876;13.880;2023-03-14T06:53:22;4.63;;;1.77;;
11418;SDS011;32800;44.876;13.880;2023-03-14T06:55:47;5.03;;;1.60;;
11418;SDS011;32800;44.876;13.880;2023-03-14T06:58:13;3.03;;;1.47;;
11418;SDS011;32800;44.876;13.880;2023-03-14T07:00:39;3.03;;;1.70;;
11418;SDS011;32800;44.876;13.880;2023-03-14T07:03:04;3.27;;;1.70;;
11418;SDS011;32800;44.876;13.880;2023-03-14T07:05:30;3.57;;;1.47;;
11418;SDS011;32800;44.876;13.880;2023-03-14T07:07:56;2.40;;;1.40;;
11418;SDS011;32800;44.876;13.880;2023-03-14T07:10:21;4.23;;;2.03;;
11418;SDS011;32800;44.876;13.880;2023-03-14T07:12:47;3.10;;;1.70;;
11418;SDS011;32800;44.876;13.880;2023-03-14T07:15:13;6.07;;;1.40;;
11418;SDS011;32800;44.876;13.880;2023-03-14T07:17:38;4.27;;;1.90;;
11418;SDS011;32800;44.876;13.880;2023-03-14T07:20:04;6.77;;;2.23;;
11418;SDS011;32800;44.876;13.880;2023-03-14T07:22:30;4.30;;;1.70;;
11418;SDS011;32800;44.876;13.880;2023-03-14T07:24:56;6.07;;;1.73;;
11418;SDS011;32800;44.876;13.880;2023-03-14T07:27:21;6.37;;;1.83;;
11418;SDS011;32800;44.876;13.880;2023-03-14T07:29:47;7.10;;;1.83;;
11418;SDS011;32800;44.876;13.880;2023-03-14T07:32:12;6.30;;;2.27;;
11418;SDS011;32800;44.876;13.880;2023-03-14T07:34:41;10.40;;;2.10;;
11418;SDS011;32800;44.876;13.880;2023-03-14T07:37:07;5.57;;;2.40;;
11418;SDS011;32800;44.876;13.880;2023-03-14T07:39:33;4.43;;;1.97;;
11418;SDS011;32800;44.876;13.880;2023-03-14T07:41:59;5.60;;;1.77;;
11418;SDS011;32800;44.876;13.880;2023-03-14T07:44:25;6.10;;;1.60;;
11418;SDS011;32800;44.876;13.880;2023-03-14T07:46:50;7.10;;;2.00;;
11418;SDS011;32800;44.876;13.880;2023-03-14T07:49:16;5.00;;;1.80;;
11418;SDS011;32800;44.876;13.880;2023-03-14T07:51:42;5.33;;;1.63;;
11418;SDS011;32800;44.876;13.880;2023-03-14T07:54:09;8.87;;;2.77;;
11418;SDS011;32800;44.876;13.880;2023-03-14T07:56:35;7.83;;;2.87;;
11418;SDS011;32800;44.876;13.880;2023-03-14T07:59:00;7.47;;;2.30;;
11418;SDS011;32800;44.876;13.880;2023-03-14T08:01:26;6.37;;;2.60;;
11418;SDS011;32800;44.876;13.880;2023-03-14T08:03:52;10.13;;;2.40;;
11418;SDS011;32800;44.876;13.880;2023-03-14T08:06:17;8.27;;;2.33;;
11418;SDS011;32800;44.876;13.880;2023-03-14T08:08:43;7.40;;;2.30;;
11418;SDS011;32800;44.876;13.880;2023-03-14T08:11:08;5.30;;;2.20;;
11418;SDS011;32800;44.876;13.880;2023-03-14T08:13:35;7.80;;;2.60;;
11418;SDS011;32800;44.876;13.880;2023-03-14T08:16:01;5.93;;;2.33;;
11418;SDS011;32800;44.876;13.880;2023-03-14T08:18:26;5.63;;;1.63;;
11418;SDS011;32800;44.876;13.880;2023-03-14T08:20:52;7.87;;;2.50;;
11418;SDS011;32800;44.876;13.880;2023-03-14T08:23:17;6.43;;;2.80;;
11418;SDS011;32800;44.876;13.880;2023-03-14T08:25:43;6.13;;;2.50;;
11418;SDS011;32800;44.876;13.880;2023-03-14T08:28:08;5.53;;;2.13;;
11418;SDS011;32800;44.876;13.880;2023-03-14T08:30:34;4.37;;;2.10;;
11418;SDS011;32800;44.876;13.880;2023-03-14T08:33:00;5.90;;;2.10;;
11418;SDS011;32800;44.876;13.880;2023-03-14T08:35:26;7.75;;;1.90;;
11418;SDS011;32800;44.876;13.880;2023-03-14T08:37:52;7.47;;;2.90;;
11418;SDS011;32800;44.876;13.880;2023-03-14T08:40:17;6.87;;;2.27;;
11418;SDS011;32800;44.876;13.880;2023-03-14T08:42:43;5.53;;;2.10;;
11418;SDS011;32800;44.876;13.880;2023-03-14T08:45:10;7.27;;;2.30;;
11418;SDS011;32800;44.876;13.880;2023-03-14T08:47:37;5.97;;;2.20;;
11418;SDS011;32800;44.876;13.880;2023-03-14T08:50:03;6.70;;;2.13;;
11418;SDS011;32800;44.876;13.880;2023-03-14T08:52:30;6.67;;;2.40;;
11418;SDS011;32800;44.876;13.880;2023-03-14T08:54:56;5.30;;;2.37;;
11418;SDS011;32800;44.876;13.880;2023-03-14T08:57:22;6.30;;;2.10;;
11418;SDS011;32800;44.876;13.880;2023-03-14T08:59:52;4.63;;;1.90;;
11418;SDS011;32800;44.876;13.880;2023-03-14T09:02:20;3.40;;;1.90;;
11418;SDS011;32800;44.876;13.880;2023-03-14T09:04:46;5.10;;;2.27;;
11418;SDS011;32800;44.876;13.880;2023-03-14T09:07:11;5.93;;;2.17;;
11418;SDS011;32800;44.876;13.880;2023-03-14T09:09:37;4.68;;;2.22;;
11418;SDS011;32800;44.876;13.880;2023-03-14T09:12:02;5.35;;;2.30;;
11418;SDS011;32800;44.876;13.880;2023-03-14T09:14:28;5.43;;;2.00;;
11418;SDS011;32800;44.876;13.880;2023-03-14T09:16:54;6.53;;;1.70;;
11418;SDS011;32800;44.876;13.880;2023-03-14T09:19:20;5.73;;;2.70;;
11418;SDS011;32800;44.876;13.880;2023-03-14T09:21:45;5.43;;;2.07;;
11418;SDS011;32800;44.876;13.880;2023-03-14T09:24:11;6.03;;;2.20;;
11418;SDS011;32800;44.876;13.880;2023-03-14T09:26:37;5.87;;;2.40;;
11418;SDS011;32800;44.876;13.880;2023-03-14T09:29:02;7.40;;;2.13;;
11418;SDS011;32800;44.876;13.880;2023-03-14T09:31:28;5.57;;;2.20;;
11418;SDS011;32800;44.876;13.880;2023-03-14T09:33:54;5.97;;;1.77;;
11418;SDS011;32800;44.876;13.880;2023-03-14T09:36:20;4.50;;;2.07;;
11418;SDS011;32800;44.876;13.880;2023-03-14T09:38:45;5.83;;;2.20;;
11418;SDS011;32800;44.876;13.880;2023-03-14T09:41:18;5.33;;;1.90;;
11418;SDS011;32800;44.876;13.880;2023-03-14T09:43:47;6.60;;;2.20;;
11418;SDS011;32800;44.876;13.880;2023-03-14T09:46:16;5.30;;;2.40;;
11418;SDS011;32800;44.876;13.880;2023-03-14T09:48:41;4.37;;;2.27;;
11418;SDS011;32800;44.876;13.880;2023-03-14T09:51:12;5.13;;;2.07;;
11418;SDS011;32800;44.876;13.880;2023-03-14T09:53:49;4.90;;;2.13;;
11418;SDS011;32800;44.876;13.880;2023-03-14T09:56:20;4.50;;;2.00;;
11418;SDS011;32800;44.876;13.880;2023-03-14T09:58:54;6.57;;;2.10;;
11418;SDS011;32800;44.876;13.880;2023-03-14T10:01:25;4.97;;;2.17;;
11418;SDS011;32800;44.876;13.880;2023-03-14T10:04:01;5.53;;;1.90;;
11418;SDS011;32800;44.876;13.880;2023-03-14T10:06:30;5.73;;;1.90;;
11418;SDS011;32800;44.876;13.880;2023-03-14T10:08:56;4.87;;;2.20;;
11418;SDS011;32800;44.876;13.880;2023-03-14T10:11:22;4.83;;;1.90;;
11418;SDS011;32800;44.876;13.880;2023-03-14T10:16:35;3.80;;;2.00;;
11418;SDS011;32800;44.876;13.880;2023-03-14T10:19:03;3.80;;;1.53;;
11418;SDS011;32800;44.876;13.880;2023-03-14T10:21:30;4.47;;;2.07;;
11418;SDS011;32800;44.876;13.880;2023-03-14T10:27:03;5.30;;;2.03;;
11418;SDS011;32800;44.876;13.880;2023-03-14T10:29:31;3.73;;;1.67;;
11418;SDS011;32800;44.876;13.880;2023-03-14T10:32:05;5.33;;;1.70;;
11418;SDS011;32800;44.876;13.880;2023-03-14T10:34:33;5.50;;;2.10;;
11418;SDS011;32800;44.876;13.880;2023-03-14T10:39:52;5.30;;;1.70;;
11418;SDS011;32800;44.876;13.880;2023-03-14T10:42:19;3.80;;;1.63;;
11418;SDS011;32800;44.876;13.880;2023-03-14T10:45:00;3.90;;;1.80;;
11418;SDS011;32800;44.876;13.880;2023-03-14T10:47:28;3.67;;;1.83;;
11418;SDS011;32800;44.876;13.880;2023-03-14T10:49:54;3.73;;;1.70;;
11418;SDS011;32800;44.876;13.880;2023-03-14T10:52:27;6.77;;;2.23;;
11418;SDS011;32800;44.876;13.880;2023-03-14T10:55:01;3.73;;;1.70;;
11418;SDS011;32800;44.876;13.880;2023-03-14T10:57:29;3.60;;;1.80;;
11418;SDS011;32800;44.876;13.880;2023-03-14T10:59:55;3.50;;;1.60;;
11418;SDS011;32800;44.876;13.880;2023-03-14T11:07:49;3.73;;;1.80;;
11418;SDS011;32800;44.876;13.880;2023-03-14T11:10:38;5.13;;;2.00;;
11418;SDS011;32800;44.876;13.880;2023-03-14T11:21:35;3.30;;;1.90;;
11418;SDS011;32800;44.876;13.880;2023-03-14T11:31:58;4.77;;;2.10;;
11418;SDS011;32800;44.876;13.880;2023-03-14T11:35:11;3.40;;;1.80;;
11418;SDS011;32800;44.876;13.880;2023-03-14T11:42:50;5.67;;;2.13;;
11418;SDS011;32800;44.876;13.880;2023-03-14T11:45:22;5.50;;;2.33;;
11418;SDS011;32800;44.876;13.880;2023-03-14T11:47:55;4.63;;;1.90;;
11418;SDS011;32800;44.876;13.880;2023-03-14T11:50:40;4.47;;;2.30;;
11418;SDS011;32800;44.876;13.880;2023-03-14T11:53:09;4.90;;;2.30;;
11418;SDS011;32800;44.876;13.880;2023-03-14T11:55:39;4.10;;;2.10;;
11418;SDS011;32800;44.876;13.880;2023-03-14T12:00:55;3.23;;;1.70;;
11418;SDS011;32800;44.876;13.880;2023-03-14T12:05:58;5.33;;;1.90;;
11418;SDS011;32800;44.876;13.880;2023-03-14T12:08:30;6.67;;;1.80;;
11418;SDS011;32800;44.876;13.880;2023-03-14T12:11:03;5.70;;;1.93;;
11418;SDS011;32800;44.876;13.880;2023-03-14T12:13:37;4.83;;;2.00;;
11418;SDS011;32800;44.876;13.880;2023-03-14T12:16:04;4.33;;;1.97;;
11418;SDS011;32800;44.876;13.880;2023-03-14T12:18:45;5.50;;;2.00;;
11418;SDS011;32800;44.876;13.880;2023-03-14T12:21:11;4.93;;;2.00;;
11418;SDS011;32800;44.876;13.880;2023-03-14T12:23:40;2.83;;;1.73;;
11418;SDS011;32800;44.876;13.880;2023-03-14T12:28:35;5.00;;;2.10;;
11418;SDS011;32800;44.876;13.880;2023-03-14T12:42:13;3.63;;;1.90;;
11418;SDS011;32800;44.876;13.880;2023-03-14T12:44:47;5.90;;;2.33;;
11418;SDS011;32800;44.876;13.880;2023-03-14T12:49:46;4.90;;;2.10;;
11418;SDS011;32800;44.876;13.880;2023-03-14T12:52:15;5.13;;;2.20;;
11418;SDS011;32800;44.876;13.880;2023-03-14T12:54:47;4.30;;;1.80;;
11418;SDS011;32800;44.876;13.880;2023-03-14T12:57:22;4.17;;;1.90;;
11418;SDS011;32800;44.876;13.880;2023-03-14T13:02:43;5.67;;;2.10;;
11418;SDS011;32800;44.876;13.880;2023-03-14T13:05:27;4.60;;;1.80;;
11418;SDS011;32800;44.876;13.880;2023-03-14T13:13:24;3.53;;;1.90;;
11418;SDS011;32800;44.876;13.880;2023-03-14T13:15:58;4.43;;;1.83;;
11418;SDS011;32800;44.876;13.880;2023-03-14T13:18:35;4.90;;;2.00;;
11418;SDS011;32800;44.876;13.880;2023-03-14T13:29:11;6.37;;;2.10;;
11418;SDS011;32800;44.876;13.880;2023-03-14T13:31:48;4.40;;;1.77;;
11418;SDS011;32800;44.876;13.880;2023-03-14T13:34:15;4.20;;;1.93;;
11418;SDS011;32800;44.876;13.880;2023-03-14T13:36:40;3.60;;;1.80;;
11418;SDS011;32800;44.876;13.880;2023-03-14T13:39:10;4.70;;;1.83;;
11418;SDS011;32800;44.876;13.880;2023-03-14T13:41:38;4.20;;;1.90;;
11418;SDS011;32800;44.876;13.880;2023-03-14T13:44:07;4.13;;;2.00;;
11418;SDS011;32800;44.876;13.880;2023-03-14T13:46:36;4.10;;;1.83;;
11418;SDS011;32800;44.876;13.880;2023-03-14T13:49:03;3.83;;;2.00;;
11418;SDS011;32800;44.876;13.880;2023-03-14T13:51:30;4.77;;;1.80;;
11418;SDS011;32800;44.876;13.880;2023-03-14T13:53:58;4.37;;;1.90;;
11418;SDS011;32800;44.876;13.880;2023-03-14T13:56:25;3.20;;;1.90;;
11418;SDS011;32800;44.876;13.880;2023-03-14T13:58:52;4.07;;;1.50;;
11418;SDS011;32800;44.876;13.880;2023-03-14T14:01:37;5.57;;;2.10;;
11418;SDS011;32800;44.876;13.880;2023-03-14T14:04:14;3.17;;;1.93;;
11418;SDS011;32800;44.876;13.880;2023-03-14T14:06:52;2.87;;;1.57;;
11418;SDS011;32800;44.876;13.880;2023-03-14T14:09:20;5.20;;;1.90;;
11418;SDS011;32800;44.876;13.880;2023-03-14T14:14:22;5.47;;;1.70;;
11418;SDS011;32800;44.876;13.880;2023-03-14T14:16:52;3.40;;;1.70;;
11418;SDS011;32800;44.876;13.880;2023-03-14T14:19:19;8.03;;;1.80;;
11418;SDS011;32800;44.876;13.880;2023-03-14T14:21:47;4.37;;;1.97;;
11418;SDS011;32800;44.876;13.880;2023-03-14T14:24:13;2.60;;;1.60;;
11418;SDS011;32800;44.876;13.880;2023-03-14T14:26:40;4.07;;;1.60;;
11418;SDS011;32800;44.876;13.880;2023-03-14T14:29:16;4.50;;;1.70;;
11418;SDS011;32800;44.876;13.880;2023-03-14T14:31:48;4.43;;;1.87;;
11418;SDS011;32800;44.876;13.880;2023-03-14T14:34:28;4.03;;;1.83;;
11418;SDS011;32800;44.876;13.880;2023-03-14T14:36:53;6.80;;;2.00;;
11418;SDS011;32800;44.876;13.880;2023-03-14T14:39:26;4.13;;;1.77;;
11418;SDS011;32800;44.876;13.880;2023-03-14T14:41:54;3.73;;;1.60;;
11418;SDS011;32800;44.876;13.880;2023-03-14T14:44:32;6.00;;;2.23;;
11418;SDS011;32800;44.876;13.880;2023-03-14T14:46:59;4.43;;;1.87;;
11418;SDS011;32800;44.876;13.880;2023-03-14T14:49:30;4.33;;;2.07;;
11418;SDS011;32800;44.876;13.880;2023-03-14T14:52:16;4.87;;;1.90;;
11418;SDS011;32800;44.876;13.880;2023-03-14T14:54:53;3.38;;;1.92;;
11418;SDS011;32800;44.876;13.880;2023-03-14T14:57:26;2.90;;;1.80;;
11418;SDS011;32800;44.876;13.880;2023-03-14T14:59:56;4.00;;;1.90;;
11418;SDS011;32800;44.876;13.880;2023-03-14T15:04:50;6.40;;;2.30;;
11418;SDS011;32800;44.876;13.880;2023-03-14T15:07:16;7.90;;;2.17;;
11418;SDS011;32800;44.876;13.880;2023-03-14T15:09:42;6.10;;;2.30;;
11418;SDS011;32800;44.876;13.880;2023-03-14T15:12:08;3.77;;;2.20;;
11418;SDS011;32800;44.876;13.880;2023-03-14T15:14:33;5.97;;;2.00;;
11418;SDS011;32800;44.876;13.880;2023-03-14T15:16:59;4.83;;;2.13;;
11418;SDS011;32800;44.876;13.880;2023-03-14T15:19:24;3.83;;;1.90;;
11418;SDS011;32800;44.876;13.880;2023-03-14T15:21:51;3.67;;;1.80;;
11418;SDS011;32800;44.876;13.880;2023-03-14T15:24:18;4.17;;;1.93;;
11418;SDS011;32800;44.876;13.880;2023-03-14T15:26:44;5.30;;;2.17;;
11418;SDS011;32800;44.876;13.880;2023-03-14T15:29:10;6.63;;;2.53;;
11418;SDS011;32800;44.876;13.880;2023-03-14T15:31:37;2.60;;;1.67;;
11418;SDS011;32800;44.876;13.880;2023-03-14T15:34:03;3.40;;;1.83;;
11418;SDS011;32800;44.876;13.880;2023-03-14T15:36:30;5.17;;;2.03;;
11418;SDS011;32800;44.876;13.880;2023-03-14T15:38:57;4.47;;;2.00;;
11418;SDS011;32800;44.876;13.880;2023-03-14T15:41:27;6.40;;;2.13;;
11418;SDS011;32800;44.876;13.880;2023-03-14T15:43:52;4.67;;;1.83;;
11418;SDS011;32800;44.876;13.880;2023-03-14T15:46:19;5.80;;;2.30;;
11418;SDS011;32800;44.876;13.880;2023-03-14T15:48:46;2.77;;;1.67;;
11418;SDS011;32800;44.876;13.880;2023-03-14T15:51:13;4.60;;;1.90;;
11418;SDS011;32800;44.876;13.880;2023-03-14T15:53:39;5.07;;;2.47;;
11418;SDS011;32800;44.876;13.880;2023-03-14T15:56:05;2.80;;;1.83;;
11418;SDS011;32800;44.876;13.880;2023-03-14T15:58:32;3.23;;;1.70;;
11418;SDS011;32800;44.876;13.880;2023-03-14T16:01:01;4.37;;;1.90;;
11418;SDS011;32800;44.876;13.880;2023-03-14T16:03:27;3.73;;;1.90;;
11418;SDS011;32800;44.876;13.880;2023-03-14T16:05:53;4.53;;;1.90;;
11418;SDS011;32800;44.876;13.880;2023-03-14T16:08:19;4.17;;;1.87;;